sensor_id;sensor_type;location;lat;lon;timestamp;temperature;humidity
23477;DHT22;11911;50.768;13.150;2022-09-16T04:02:35;9.80;96.30
23477;DHT22;11911;50.768;13.150;2022-09-16T04:05:01;9.90;96.30
23477;DHT22;11911;50.768;13.150;2022-09-16T04:07:26;9.90;96.30
23477;DHT22;11911;50.768;13.150;2022-09-16T04:09:52;9.90;96.30
23477;DHT22;11911;50.768;13.150;2022-09-16T04:12:17;9.90;96.30
23477;DHT22;11911;50.768;13.150;2022-09-16T04:24:41;9.90;96.30
23477;DHT22;11911;50.768;13.150;2022-09-16T04:27:06;9.80;96.30
23477;DHT22;11911;50.768;13.150;2022-09-16T04:29:32;9.90;96.30
23477;DHT22;11911;50.768;13.150;2022-09-16T04:31:57;9.90;96.30
23477;DHT22;11911;50.768;13.150;2022-09-16T04:34:23;10.00;96.30
23477;DHT22;11911;50.768;13.150;2022-09-16T04:36:48;10.00;96.30
23477;DHT22;11911;50.768;13.150;2022-09-16T04:39:14;10.10;96.30
23477;DHT22;11911;50.768;13.150;2022-09-16T04:41:39;10.10;96.30
23477;DHT22;11911;50.768;13.150;2022-09-16T04:44:04;10.10;96.30
23477;DHT22;11911;50.768;13.150;2022-09-16T04:46:31;10.10;96.30
23477;DHT22;11911;50.768;13.150;2022-09-16T04:48:58;10.10;96.30
23477;DHT22;11911;50.768;13.150;2022-09-16T04:51:25;10.10;96.30
23477;DHT22;11911;50.768;13.150;2022-09-16T04:53:55;10.00;96.30
23477;DHT22;11911;50.768;13.150;2022-09-16T04:56:24;10.00;96.30
23477;DHT22;11911;50.768;13.150;2022-09-16T04:58:52;10.10;96.30
23477;DHT22;11911;50.768;13.150;2022-09-16T05:01:20;10.10;96.30
23477;DHT22;11911;50.768;13.150;2022-09-16T05:03:48;10.10;96.30
23477;DHT22;11911;50.768;13.150;2022-09-16T05:06:19;10.10;96.30
23477;DHT22;11911;50.768;13.150;2022-09-16T05:08:45;10.10;96.30
23477;DHT22;11911;50.768;13.150;2022-09-16T05:11:16;10.10;96.30
23477;DHT22;11911;50.768;13.150;2022-09-16T05:13:42;10.00;96.30
23477;DHT22;11911;50.768;13.150;2022-09-16T05:16:13;10.00;96.30
23477;DHT22;11911;50.768;13.150;2022-09-16T05:18:40;10.10;96.30
23477;DHT22;11911;50.768;13.150;2022-09-16T05:21:09;10.10;96.30
23477;DHT22;11911;50.768;13.150;2022-09-16T05:23:35;10.20;96.30
23477;DHT22;11911;50.768;13.150;2022-09-16T05:26:04;10.20;96.30
23477;DHT22;11911;50.768;13.150;2022-09-16T05:28:30;10.20;96.30
23477;DHT22;11911;50.768;13.150;2022-09-16T05:31:16;10.20;96.30
23477;DHT22;11911;50.768;13.150;2022-09-16T05:33:44;10.30;96.30
23477;DHT22;11911;50.768;13.150;2022-09-16T05:36:12;10.30;96.30
23477;DHT22;11911;50.768;13.150;2022-09-16T05:38:38;10.30;96.30
23477;DHT22;11911;50.768;13.150;2022-09-16T05:41:04;10.40;96.30
23477;DHT22;11911;50.768;13.150;2022-09-16T05:43:31;10.40;96.30
23477;DHT22;11911;50.768;13.150;2022-09-16T05:45:57;10.50;96.30
23477;DHT22;11911;50.768;13.150;2022-09-16T05:48:23;10.50;96.30
23477;DHT22;11911;50.768;13.150;2022-09-16T05:50:53;10.60;96.30
23477;DHT22;11911;50.768;13.150;2022-09-16T05:53:20;10.70;96.30
23477;DHT22;11911;50.768;13.150;2022-09-16T05:56:02;10.80;96.30
23477;DHT22;11911;50.768;13.150;2022-09-16T05:58:30;10.80;96.30
23477;DHT22;11911;50.768;13.150;2022-09-16T06:00:59;10.70;96.30
23477;DHT22;11911;50.768;13.150;2022-09-16T06:03:26;10.60;96.30
23477;DHT22;11911;50.768;13.150;2022-09-16T06:05:57;10.60;96.30
23477;DHT22;11911;50.768;13.150;2022-09-16T06:08:23;10.60;96.30
23477;DHT22;11911;50.768;13.150;2022-09-16T06:10:48;10.60;96.30
23477;DHT22;11911;50.768;13.150;2022-09-16T06:13:14;10.50;96.30
23477;DHT22;11911;50.768;13.150;2022-09-16T06:15:39;10.60;96.30
23477;DHT22;11911;50.768;13.150;2022-09-16T06:18:12;10.60;96.30
23477;DHT22;11911;50.768;13.150;2022-09-16T06:20:40;10.60;96.30
23477;DHT22;11911;50.768;13.150;2022-09-16T06:23:05;10.50;96.30
23477;DHT22;11911;50.768;13.150;2022-09-16T06:25:31;10.60;96.30
23477;DHT22;11911;50.768;13.150;2022-09-16T06:27:57;10.60;96.30
23477;DHT22;11911;50.768;13.150;2022-09-16T06:30:22;10.80;96.30
23477;DHT22;11911;50.768;13.150;2022-09-16T06:32:48;10.80;96.30
23477;DHT22;11911;50.768;13.150;2022-09-16T06:35:13;10.90;96.30
23477;DHT22;11911;50.768;13.150;2022-09-16T06:37:39;10.90;96.30
23477;DHT22;11911;50.768;13.150;2022-09-16T06:40:04;10.90;96.30
23477;DHT22;11911;50.768;13.150;2022-09-16T06:42:30;10.90;96.30
23477;DHT22;11911;50.768;13.150;2022-09-16T06:44:56;10.80;96.30
23477;DHT22;11911;50.768;13.150;2022-09-16T06:47:22;10.80;96.30
23477;DHT22;11911;50.768;13.150;2022-09-16T06:49:48;11.00;96.30
23477;DHT22;11911;50.768;13.150;2022-09-16T06:52:13;11.20;96.30
23477;DHT22;11911;50.768;13.150;2022-09-16T06:54:39;11.40;96.30
23477;DHT22;11911;50.768;13.150;2022-09-16T06:57:04;11.40;96.30
23477;DHT22;11911;50.768;13.150;2022-09-16T06:59:30;11.50;96.30
23477;DHT22;11911;50.768;13.150;2022-09-16T07:01:55;11.80;96.30
23477;DHT22;11911;50.768;13.150;2022-09-16T07:04:21;12.10;96.30
23477;DHT22;11911;50.768;13.150;2022-09-16T07:06:46;12.10;96.30
23477;DHT22;11911;50.768;13.150;2022-09-16T07:09:14;12.20;96.30
23477;DHT22;11911;50.768;13.150;2022-09-16T07:11:40;12.20;96.30
23477;DHT22;11911;50.768;13.150;2022-09-16T07:14:07;12.40;96.30
23477;DHT22;11911;50.768;13.150;2022-09-16T07:16:33;12.70;96.30
23477;DHT22;11911;50.768;13.150;2022-09-16T07:18:59;12.80;96.30
23477;DHT22;11911;50.768;13.150;2022-09-16T07:21:26;12.80;96.30
23477;DHT22;11911;50.768;13.150;2022-09-16T07:23:55;12.80;96.30
23477;DHT22;11911;50.768;13.150;2022-09-16T07:26:24;12.90;96.30
23477;DHT22;11911;50.768;13.150;2022-09-16T07:28:53;12.90;96.30
23477;DHT22;11911;50.768;13.150;2022-09-16T07:31:21;12.60;96.30
23477;DHT22;11911;50.768;13.150;2022-09-16T07:33:50;12.70;96.30
23477;DHT22;11911;50.768;13.150;2022-09-16T07:36:18;12.50;96.30
23477;DHT22;11911;50.768;13.150;2022-09-16T07:38:45;12.50;96.30
23477;DHT22;11911;50.768;13.150;2022-09-16T07:41:16;12.90;96.30
23477;DHT22;11911;50.768;13.150;2022-09-16T07:43:43;13.30;96.30
23477;DHT22;11911;50.768;13.150;2022-09-16T07:46:10;13.20;96.30
23477;DHT22;11911;50.768;13.150;2022-09-16T07:48:36;12.70;96.30
23477;DHT22;11911;50.768;13.150;2022-09-16T07:51:08;12.20;96.30
23477;DHT22;11911;50.768;13.150;2022-09-16T07:53:35;11.70;96.30
23477;DHT22;11911;50.768;13.150;2022-09-16T07:56:06;11.40;96.30
23477;DHT22;11911;50.768;13.150;2022-09-16T07:58:32;11.20;96.30
23477;DHT22;11911;50.768;13.150;2022-09-16T08:00:58;11.20;96.30
23477;DHT22;11911;50.768;13.150;2022-09-16T08:03:24;11.40;96.30
23477;DHT22;11911;50.768;13.150;2022-09-16T08:05:50;11.90;96.30
23477;DHT22;11911;50.768;13.150;2022-09-16T08:08:16;12.80;96.30
23477;DHT22;11911;50.768;13.150;2022-09-16T08:10:41;14.00;96.30
23477;DHT22;11911;50.768;13.150;2022-09-16T08:13:08;15.10;96.30
23477;DHT22;11911;50.768;13.150;2022-09-16T08:15:33;15.70;96.30
23477;DHT22;11911;50.768;13.150;2022-09-16T08:17:59;15.50;96.30
23477;DHT22;11911;50.768;13.150;2022-09-16T08:20:25;15.90;96.30
23477;DHT22;11911;50.768;13.150;2022-09-16T08:22:51;16.40;96.30
23477;DHT22;11911;50.768;13.150;2022-09-16T08:25:17;16.60;96.30
23477;DHT22;11911;50.768;13.150;2022-09-16T08:27:42;15.90;96.30
23477;DHT22;11911;50.768;13.150;2022-09-16T08:30:08;15.20;96.30
23477;DHT22;11911;50.768;13.150;2022-09-16T08:32:34;14.60;96.30
23477;DHT22;11911;50.768;13.150;2022-09-16T08:35:00;14.40;96.30
23477;DHT22;11911;50.768;13.150;2022-09-16T08:37:25;14.30;96.30
23477;DHT22;11911;50.768;13.150;2022-09-16T08:39:51;14.10;96.30
23477;DHT22;11911;50.768;13.150;2022-09-16T08:44:59;13.90;96.30
23477;DHT22;11911;50.768;13.150;2022-09-16T08:47:57;14.20;96.30
23477;DHT22;11911;50.768;13.150;2022-09-16T08:50:30;14.00;96.30
23477;DHT22;11911;50.768;13.150;2022-09-16T08:52:59;13.80;96.30
23477;DHT22;11911;50.768;13.150;2022-09-16T08:55:29;14.00;96.30
23477;DHT22;11911;50.768;13.150;2022-09-16T08:58:03;14.30;96.30
23477;DHT22;11911;50.768;13.150;2022-09-16T09:00:30;15.30;96.30
23477;DHT22;11911;50.768;13.150;2022-09-16T09:03:21;16.00;96.30
23477;DHT22;11911;50.768;13.150;2022-09-16T09:05:55;15.70;96.30
23477;DHT22;11911;50.768;13.150;2022-09-16T09:08:54;15.30;96.30
23477;DHT22;11911;50.768;13.150;2022-09-16T09:11:34;14.90;96.30
23477;DHT22;11911;50.768;13.150;2022-09-16T09:14:26;14.70;96.30
23477;DHT22;11911;50.768;13.150;2022-09-16T09:17:06;14.70;96.30
23477;DHT22;11911;50.768;13.150;2022-09-16T09:19:47;15.10;96.30
23477;DHT22;11911;50.768;13.150;2022-09-16T09:22:53;15.60;96.30
23477;DHT22;11911;50.768;13.150;2022-09-16T09:31:35;16.60;96.30
23477;DHT22;11911;50.768;13.150;2022-09-16T09:37:18;15.80;96.30
23477;DHT22;11911;50.768;13.150;2022-09-16T09:40:02;15.50;96.30
23477;DHT22;11911;50.768;13.150;2022-09-16T09:42:50;15.10;96.30
23477;DHT22;11911;50.768;13.150;2022-09-16T09:45:26;14.70;96.30
23477;DHT22;11911;50.768;13.150;2022-09-16T09:48:00;15.00;96.30
23477;DHT22;11911;50.768;13.150;2022-09-16T09:50:40;15.60;96.30
23477;DHT22;11911;50.768;13.150;2022-09-16T09:53:38;15.80;96.30
23477;DHT22;11911;50.768;13.150;2022-09-16T09:56:17;15.40;96.30
23477;DHT22;11911;50.768;13.150;2022-09-16T10:01:15;16.90;96.30
23477;DHT22;11911;50.768;13.150;2022-09-16T10:03:41;17.90;96.30
23477;DHT22;11911;50.768;13.150;2022-09-16T10:06:08;17.70;96.30
23477;DHT22;11911;50.768;13.150;2022-09-16T10:08:45;18.40;96.30
23477;DHT22;11911;50.768;13.150;2022-09-16T10:11:18;19.60;96.30
23477;DHT22;11911;50.768;13.150;2022-09-16T10:13:49;18.60;96.30
23477;DHT22;11911;50.768;13.150;2022-09-16T10:16:18;17.10;96.30
23477;DHT22;11911;50.768;13.150;2022-09-16T10:18:54;15.20;96.30
23477;DHT22;11911;50.768;13.150;2022-09-16T10:21:20;13.60;96.30
23477;DHT22;11911;50.768;13.150;2022-09-16T10:23:53;13.20;96.30
23477;DHT22;11911;50.768;13.150;2022-09-16T10:26:22;13.20;96.30
23477;DHT22;11911;50.768;13.150;2022-09-16T10:29:00;13.90;96.30
23477;DHT22;11911;50.768;13.150;2022-09-16T10:31:34;14.80;96.30
23477;DHT22;11911;50.768;13.150;2022-09-16T10:34:02;15.60;96.30
23477;DHT22;11911;50.768;13.150;2022-09-16T10:36:32;16.50;96.30
23477;DHT22;11911;50.768;13.150;2022-09-16T10:39:00;17.20;96.30
23477;DHT22;11911;50.768;13.150;2022-09-16T10:41:33;17.80;96.30
23477;DHT22;11911;50.768;13.150;2022-09-16T10:44:13;18.00;96.30
23477;DHT22;11911;50.768;13.150;2022-09-16T10:46:54;17.90;96.30
23477;DHT22;11911;50.768;13.150;2022-09-16T10:49:44;17.80;96.30
23477;DHT22;11911;50.768;13.150;2022-09-16T10:52:21;17.00;96.30
23477;DHT22;11911;50.768;13.150;2022-09-16T10:54:48;16.00;96.30
23477;DHT22;11911;50.768;13.150;2022-09-16T10:57:29;15.50;96.30
23477;DHT22;11911;50.768;13.150;2022-09-16T11:05:48;15.10;96.30
23477;DHT22;11911;50.768;13.150;2022-09-16T11:11:48;17.30;96.30
23477;DHT22;11911;50.768;13.150;2022-09-16T11:14:38;17.90;96.30
23477;DHT22;11911;50.768;13.150;2022-09-16T11:17:17;17.90;96.30
23477;DHT22;11911;50.768;13.150;2022-09-16T11:23:20;18.30;96.30
23477;DHT22;11911;50.768;13.150;2022-09-16T11:26:11;16.90;96.30
23477;DHT22;11911;50.768;13.150;2022-09-16T11:29:20;14.60;96.30
23477;DHT22;11911;50.768;13.150;2022-09-16T11:32:29;13.20;96.30
23477;DHT22;11911;50.768;13.150;2022-09-16T11:37:55;12.80;96.30
23477;DHT22;11911;50.768;13.150;2022-09-16T11:46:40;12.70;96.30
23477;DHT22;11911;50.768;13.150;2022-09-16T11:52:31;15.10;96.30
23477;DHT22;11911;50.768;13.150;2022-09-16T11:57:51;15.70;96.30
23477;DHT22;11911;50.768;13.150;2022-09-16T12:00:18;15.40;96.30
23477;DHT22;11911;50.768;13.150;2022-09-16T12:03:09;16.00;96.30
23477;DHT22;11911;50.768;13.150;2022-09-16T12:05:48;16.60;96.30
23477;DHT22;11911;50.768;13.150;2022-09-16T12:11:37;16.10;96.30
23477;DHT22;11911;50.768;13.150;2022-09-16T12:14:35;16.10;96.30
23477;DHT22;11911;50.768;13.150;2022-09-16T12:17:10;15.90;96.30
23477;DHT22;11911;50.768;13.150;2022-09-16T12:19:48;15.30;96.30
23477;DHT22;11911;50.768;13.150;2022-09-16T12:22:26;14.50;96.30
23477;DHT22;11911;50.768;13.150;2022-09-16T12:25:09;14.00;96.30
23477;DHT22;11911;50.768;13.150;2022-09-16T12:27:48;13.80;96.30
23477;DHT22;11911;50.768;13.150;2022-09-16T12:30:19;13.80;96.30
23477;DHT22;11911;50.768;13.150;2022-09-16T12:33:18;13.80;96.30
23477;DHT22;11911;50.768;13.150;2022-09-16T12:35:55;13.90;96.30
23477;DHT22;11911;50.768;13.150;2022-09-16T12:38:21;13.70;96.30
23477;DHT22;11911;50.768;13.150;2022-09-16T12:41:01;13.60;96.30
23477;DHT22;11911;50.768;13.150;2022-09-16T12:43:54;13.70;96.30
23477;DHT22;11911;50.768;13.150;2022-09-16T12:52:14;14.50;96.30
23477;DHT22;11911;50.768;13.150;2022-09-16T13:03:27;15.60;96.30
23477;DHT22;11911;50.768;13.150;2022-09-16T13:05:54;15.00;96.30
23477;DHT22;11911;50.768;13.150;2022-09-16T13:08:28;14.10;96.30
23477;DHT22;11911;50.768;13.150;2022-09-16T13:11:04;14.00;96.30
23477;DHT22;11911;50.768;13.150;2022-09-16T13:13:36;13.60;96.30
23477;DHT22;11911;50.768;13.150;2022-09-16T13:16:06;13.30;96.30
23477;DHT22;11911;50.768;13.150;2022-09-16T13:18:39;13.20;96.30
23477;DHT22;11911;50.768;13.150;2022-09-16T13:23:42;13.90;96.30
23477;DHT22;11911;50.768;13.150;2022-09-16T13:26:09;14.70;96.30
23477;DHT22;11911;50.768;13.150;2022-09-16T13:33:36;14.50;96.30
23477;DHT22;11911;50.768;13.150;2022-09-16T13:38:53;15.50;96.30
23477;DHT22;11911;50.768;13.150;2022-09-16T13:41:34;15.90;96.30
23477;DHT22;11911;50.768;13.150;2022-09-16T13:44:24;16.00;96.30
23477;DHT22;11911;50.768;13.150;2022-09-16T13:46:48;15.10;96.30
23477;DHT22;11911;50.768;13.150;2022-09-16T13:49:22;14.60;96.30
23477;DHT22;11911;50.768;13.150;2022-09-16T13:51:50;14.20;96.30
23477;DHT22;11911;50.768;13.150;2022-09-16T13:54:24;14.10;96.30
23477;DHT22;11911;50.768;13.150;2022-09-16T13:57:13;14.10;96.30
23477;DHT22;11911;50.768;13.150;2022-09-16T14:11:33;13.70;96.30
23477;DHT22;11911;50.768;13.150;2022-09-16T14:14:09;13.50;96.30
23477;DHT22;11911;50.768;13.150;2022-09-16T14:16:40;13.40;96.30
23477;DHT22;11911;50.768;13.150;2022-09-16T14:19:23;13.30;96.30
23477;DHT22;11911;50.768;13.150;2022-09-16T14:22:12;13.50;96.30
23477;DHT22;11911;50.768;13.150;2022-09-16T14:24:39;13.60;96.30
23477;DHT22;11911;50.768;13.150;2022-09-16T14:29:59;14.00;96.30
23477;DHT22;11911;50.768;13.150;2022-09-16T14:32:27;13.80;96.30
23477;DHT22;11911;50.768;13.150;2022-09-16T14:34:56;13.70;96.30
23477;DHT22;11911;50.768;13.150;2022-09-16T14:37:25;13.70;96.30
23477;DHT22;11911;50.768;13.150;2022-09-16T14:39:54;13.40;96.30
23477;DHT22;11911;50.768;13.150;2022-09-16T14:42:21;13.20;96.30
23477;DHT22;11911;50.768;13.150;2022-09-16T14:44:53;13.20;96.30
23477;DHT22;11911;50.768;13.150;2022-09-16T14:47:37;13.40;96.30
23477;DHT22;11911;50.768;13.150;2022-09-16T14:50:11;13.50;96.30
23477;DHT22;11911;50.768;13.150;2022-09-16T14:52:38;13.60;96.30
23477;DHT22;11911;50.768;13.150;2022-09-16T14:55:18;13.50;96.30
23477;DHT22;11911;50.768;13.150;2022-09-16T14:57:44;13.30;96.30
23477;DHT22;11911;50.768;13.150;2022-09-16T15:00:13;13.20;96.30
23477;DHT22;11911;50.768;13.150;2022-09-16T15:03:04;13.10;96.30
23477;DHT22;11911;50.768;13.150;2022-09-16T15:05:34;12.70;96.30
23477;DHT22;11911;50.768;13.150;2022-09-16T15:08:20;12.50;96.30
23477;DHT22;11911;50.768;13.150;2022-09-16T15:10:51;12.60;96.30
23477;DHT22;11911;50.768;13.150;2022-09-16T15:13:19;13.10;96.30
23477;DHT22;11911;50.768;13.150;2022-09-16T15:15:55;13.60;96.30
23477;DHT22;11911;50.768;13.150;2022-09-16T15:18:36;13.70;96.30
23477;DHT22;11911;50.768;13.150;2022-09-16T15:21:11;13.80;96.30
23477;DHT22;11911;50.768;13.150;2022-09-16T15:23:45;13.90;96.30
23477;DHT22;11911;50.768;13.150;2022-09-16T15:28:54;13.40;96.30
23477;DHT22;11911;50.768;13.150;2022-09-16T15:33:57;13.70;96.30
23477;DHT22;11911;50.768;13.150;2022-09-16T15:36:38;13.90;96.30
23477;DHT22;11911;50.768;13.150;2022-09-16T15:39:19;14.40;96.30
23477;DHT22;11911;50.768;13.150;2022-09-16T15:41:45;14.30;96.30
23477;DHT22;11911;50.768;13.150;2022-09-16T15:44:23;14.20;96.30
23477;DHT22;11911;50.768;13.150;2022-09-16T15:46:49;14.00;96.30
23477;DHT22;11911;50.768;13.150;2022-09-16T15:49:16;13.60;96.30
23477;DHT22;11911;50.768;13.150;2022-09-16T15:51:46;13.20;96.30
23477;DHT22;11911;50.768;13.150;2022-09-16T15:54:16;13.10;96.30
23477;DHT22;11911;50.768;13.150;2022-09-16T15:56:54;13.20;96.30
23477;DHT22;11911;50.768;13.150;2022-09-16T15:59:40;13.50;96.30
23477;DHT22;11911;50.768;13.150;2022-09-16T16:05:14;13.70;96.30
23477;DHT22;11911;50.768;13.150;2022-09-16T16:07:52;13.50;96.30
23477;DHT22;11911;50.768;13.150;2022-09-16T16:10:24;13.60;96.30
23477;DHT22;11911;50.768;13.150;2022-09-16T16:12:51;13.50;96.30
23477;DHT22;11911;50.768;13.150;2022-09-16T16:15:37;13.50;96.30
23477;DHT22;11911;50.768;13.150;2022-09-16T16:18:07;13.30;96.30
23477;DHT22;11911;50.768;13.150;2022-09-16T16:25:43;13.00;96.30
23477;DHT22;11911;50.768;13.150;2022-09-16T16:28:09;12.90;96.30
23477;DHT22;11911;50.768;13.150;2022-09-16T16:30:35;12.80;96.30
23477;DHT22;11911;50.768;13.150;2022-09-16T16:33:00;12.60;96.30
23477;DHT22;11911;50.768;13.150;2022-09-16T16:35:26;12.50;96.30
23477;DHT22;11911;50.768;13.150;2022-09-16T16:37:51;12.30;96.30
23477;DHT22;11911;50.768;13.150;2022-09-16T16:40:18;12.20;96.30
23477;DHT22;11911;50.768;13.150;2022-09-16T16:42:44;12.10;96.30
23477;DHT22;11911;50.768;13.150;2022-09-16T16:45:11;12.00;96.30
23477;DHT22;11911;50.768;13.150;2022-09-16T16:47:37;11.80;96.30
23477;DHT22;11911;50.768;13.150;2022-09-16T16:50:04;11.70;96.30
23477;DHT22;11911;50.768;13.150;2022-09-16T16:52:29;11.50;96.30
23477;DHT22;11911;50.768;13.150;2022-09-16T16:54:55;11.40;96.30
23477;DHT22;11911;50.768;13.150;2022-09-16T16:57:20;11.30;96.30
23477;DHT22;11911;50.768;13.150;2022-09-16T16:59:46;11.20;96.30
23477;DHT22;11911;50.768;13.150;2022-09-16T17:02:11;11.10;96.30
23477;DHT22;11911;50.768;13.150;2022-09-16T17:04:39;11.00;96.30
23477;DHT22;11911;50.768;13.150;2022-09-16T17:07:04;10.90;96.30
23477;DHT22;11911;50.768;13.150;2022-09-16T17:09:30;10.80;96.30
23477;DHT22;11911;50.768;13.150;2022-09-16T17:11:57;10.80;96.30
23477;DHT22;11911;50.768;13.150;2022-09-16T17:14:25;10.70;96.30
23477;DHT22;11911;50.768;13.150;2022-09-16T17:16:51;10.70;96.30
23477;DHT22;11911;50.768;13.150;2022-09-16T17:19:19;10.70;96.30
23477;DHT22;11911;50.768;13.150;2022-09-16T17:21:46;10.60;96.30
23477;DHT22;11911;50.768;13.150;2022-09-16T17:24:12;10.50;96.30
23477;DHT22;11911;50.768;13.150;2022-09-16T17:26:37;10.40;96.30
23477;DHT22;11911;50.768;13.150;2022-09-16T17:29:03;10.30;96.30
23477;DHT22;11911;50.768;13.150;2022-09-16T17:31:31;10.10;96.30
23477;DHT22;11911;50.768;13.150;2022-09-16T17:34:01;10.10;96.30
23477;DHT22;11911;50.768;13.150;2022-09-16T17:36:32;10.10;96.30
23477;DHT22;11911;50.768;13.150;2022-09-16T17:39:00;10.00;96.30
23477;DHT22;11911;50.768;13.150;2022-09-16T17:41:26;9.80;96.30
23477;DHT22;11911;50.768;13.150;2022-09-16T17:43:53;9.80;96.30
23477;DHT22;11911;50.768;13.150;2022-09-16T17:46:20;9.90;96.30
23477;DHT22;11911;50.768;13.150;2022-09-16T17:48:48;9.80;96.30
23477;DHT22;11911;50.768;13.150;2022-09-16T17:51:13;9.60;96.30
23477;DHT22;11911;50.768;13.150;2022-09-16T17:53:39;9.40;96.30
23477;DHT22;11911;50.768;13.150;2022-09-16T17:56:13;9.30;96.30
23477;DHT22;11911;50.768;13.150;2022-09-16T17:58:43;9.30;96.30
23477;DHT22;11911;50.768;13.150;2022-09-16T18:01:17;9.40;96.30
23477;DHT22;11911;50.768;13.150;2022-09-16T18:03:45;9.40;96.30
23477;DHT22;11911;50.768;13.150;2022-09-16T18:06:19;9.40;96.30
23477;DHT22;11911;50.768;13.150;2022-09-16T18:08:45;9.40;96.30
23477;DHT22;11911;50.768;13.150;2022-09-16T18:11:12;9.50;96.30
23477;DHT22;11911;50.768;13.150;2022-09-16T18:13:38;9.40;96.30
23477;DHT22;11911;50.768;13.150;2022-09-16T18:18:33;9.20;96.30
23477;DHT22;11911;50.768;13.150;2022-09-16T18:21:01;9.30;96.30
23477;DHT22;11911;50.768;13.150;2022-09-16T18:23:27;9.30;96.30
23477;DHT22;11911;50.768;13.150;2022-09-16T18:25:53;9.30;96.30
23477;DHT22;11911;50.768;13.150;2022-09-16T18:28:19;9.20;96.30
23477;DHT22;11911;50.768;13.150;2022-09-16T18:30:44;9.10;96.30
23477;DHT22;11911;50.768;13.150;2022-09-16T18:33:10;9.10;96.30
23477;DHT22;11911;50.768;13.150;2022-09-16T18:35:36;9.10;96.30
23477;DHT22;11911;50.768;13.150;2022-09-16T18:38:04;9.20;96.30
23477;DHT22;11911;50.768;13.150;2022-09-16T18:40:30;9.10;96.30
23477;DHT22;11911;50.768;13.150;2022-09-16T18:42:55;9.00;96.30
23477;DHT22;11911;50.768;13.150;2022-09-16T18:45:21;9.00;96.30
23477;DHT22;11911;50.768;13.150;2022-09-16T18:47:46;8.90;96.30
23477;DHT22;11911;50.768;13.150;2022-09-16T18:50:12;8.90;96.30
23477;DHT22;11911;50.768;13.150;2022-09-16T18:52:37;8.90;96.30
23477;DHT22;11911;50.768;13.150;2022-09-16T18:55:03;8.90;96.30
23477;DHT22;11911;50.768;13.150;2022-09-16T18:57:29;8.90;96.30
23477;DHT22;11911;50.768;13.150;2022-09-16T18:59:54;9.00;96.30
23477;DHT22;11911;50.768;13.150;2022-09-16T19:02:20;9.00;96.30
23477;DHT22;11911;50.768;13.150;2022-09-16T19:04:45;9.00;96.30
23477;DHT22;11911;50.768;13.150;2022-09-16T19:07:12;9.10;96.30
23477;DHT22;11911;50.768;13.150;2022-09-16T19:09:38;9.10;96.30
23477;DHT22;11911;50.768;13.150;2022-09-16T19:12:08;9.10;96.30
23477;DHT22;11911;50.768;13.150;2022-09-16T19:14:35;9.20;96.30
23477;DHT22;11911;50.768;13.150;2022-09-16T19:17:01;9.30;96.30
23477;DHT22;11911;50.768;13.150;2022-09-16T19:19:26;9.30;96.30
23477;DHT22;11911;50.768;13.150;2022-09-16T19:21:52;9.40;96.30
23477;DHT22;11911;50.768;13.150;2022-09-16T19:24:20;9.60;96.30
23477;DHT22;11911;50.768;13.150;2022-09-16T19:26:46;9.60;96.30
23477;DHT22;11911;50.768;13.150;2022-09-16T19:29:14;9.50;96.30
23477;DHT22;11911;50.768;13.150;2022-09-16T19:31:41;9.50;96.30
23477;DHT22;11911;50.768;13.150;2022-09-16T19:34:07;9.50;96.30
23477;DHT22;11911;50.768;13.150;2022-09-16T19:36:34;9.60;96.30
23477;DHT22;11911;50.768;13.150;2022-09-16T19:39:00;9.50;96.30
23477;DHT22;11911;50.768;13.150;2022-09-16T19:41:32;9.50;96.30
23477;DHT22;11911;50.768;13.150;2022-09-16T19:44:02;9.50;96.30
23477;DHT22;11911;50.768;13.150;2022-09-16T19:46:31;9.40;96.30
23477;DHT22;11911;50.768;13.150;2022-09-16T19:48:56;9.30;96.30
23477;DHT22;11911;50.768;13.150;2022-09-16T19:51:22;9.40;96.30
23477;DHT22;11911;50.768;13.150;2022-09-16T19:53:49;9.40;96.30
23477;DHT22;11911;50.768;13.150;2022-09-16T19:56:26;9.40;96.30
23477;DHT22;11911;50.768;13.150;2022-09-16T19:58:52;9.40;96.30
23477;DHT22;11911;50.768;13.150;2022-09-16T20:01:19;9.20;96.30
23477;DHT22;11911;50.768;13.150;2022-09-16T20:03:45;9.10;96.30
23477;DHT22;11911;50.768;13.150;2022-09-16T20:06:16;9.10;96.30
23477;DHT22;11911;50.768;13.150;2022-09-16T20:08:43;9.00;96.30
23477;DHT22;11911;50.768;13.150;2022-09-16T20:11:12;9.10;96.30
23477;DHT22;11911;50.768;13.150;2022-09-16T20:13:38;9.10;96.30
23477;DHT22;11911;50.768;13.150;2022-09-16T20:16:07;9.10;96.30
23477;DHT22;11911;50.768;13.150;2022-09-16T20:18:34;9.00;96.30
23477;DHT22;11911;50.768;13.150;2022-09-16T20:21:09;9.00;96.30
23477;DHT22;11911;50.768;13.150;2022-09-16T20:23:35;9.00;96.30
23477;DHT22;11911;50.768;13.150;2022-09-16T20:26:02;9.00;96.30
23477;DHT22;11911;50.768;13.150;2022-09-16T20:28:33;8.90;96.30
23477;DHT22;11911;50.768;13.150;2022-09-16T20:30:58;8.90;96.30
23477;DHT22;11911;50.768;13.150;2022-09-16T20:33:24;8.70;96.30
23477;DHT22;11911;50.768;13.150;2022-09-16T20:35:50;8.80;96.30
23477;DHT22;11911;50.768;13.150;2022-09-16T20:38:15;8.70;96.30
23477;DHT22;11911;50.768;13.150;2022-09-16T20:40:41;8.70;96.30
23477;DHT22;11911;50.768;13.150;2022-09-16T20:43:10;8.70;96.30
23477;DHT22;11911;50.768;13.150;2022-09-16T20:45:36;8.70;96.30
23477;DHT22;11911;50.768;13.150;2022-09-16T20:48:01;8.80;96.30
23477;DHT22;11911;50.768;13.150;2022-09-16T20:50:26;8.80;96.30
23477;DHT22;11911;50.768;13.150;2022-09-16T20:52:52;8.80;96.30
23477;DHT22;11911;50.768;13.150;2022-09-16T20:55:17;8.70;96.30
23477;DHT22;11911;50.768;13.150;2022-09-16T20:57:43;8.70;96.30
23477;DHT22;11911;50.768;13.150;2022-09-16T21:00:09;8.60;96.30
23477;DHT22;11911;50.768;13.150;2022-09-16T21:02:34;8.60;96.30
23477;DHT22;11911;50.768;13.150;2022-09-16T21:05:00;8.50;96.30
23477;DHT22;11911;50.768;13.150;2022-09-16T21:07:29;8.50;96.30
23477;DHT22;11911;50.768;13.150;2022-09-16T21:09:55;8.40;96.30
23477;DHT22;11911;50.768;13.150;2022-09-16T21:12:21;8.40;96.30
23477;DHT22;11911;50.768;13.150;2022-09-16T21:14:47;8.30;96.30
23477;DHT22;11911;50.768;13.150;2022-09-16T21:17:12;8.40;96.30
23477;DHT22;11911;50.768;13.150;2022-09-16T21:19:38;8.40;96.30
23477;DHT22;11911;50.768;13.150;2022-09-16T21:22:03;8.40;96.30
23477;DHT22;11911;50.768;13.150;2022-09-16T21:24:29;8.40;96.30
23477;DHT22;11911;50.768;13.150;2022-09-16T21:26:56;8.30;96.30
23477;DHT22;11911;50.768;13.150;2022-09-16T21:29:21;8.50;96.30
23477;DHT22;11911;50.768;13.150;2022-09-16T21:31:47;8.50;96.30